Crossville Memorial Whitson Field
KCSV : now visible

Airfield :











YOU CAN JOIN US ON...

 
LOGIN :

Register | Disclaimer

   EN    FR    IT 

 









Legend :    VFR   Marginal VFR   IFR   Intensive IFR   Very Intensive IFR
Visi :
Ceiling :
>= 8 km
>= 3000ft
5 to 8 km
1000 to 3000 ft
1500m to 5 km
500 to 1000 ft
800 to 1500m
200 to 500 ft
< 800m
< 200 ft
Symbols :   Thunderstorms  Fog  Heavy snow  Heavy precipitations  Wind > 20 kt






- Airport Elevation : 1881 ft


KCSV - Crossville Memorial Whitson Field

CURRENT METAR :
  • 081953Z AUTO 17007G19KT 110V210 10SM BKN060 12/02 A3014 RMK AO2 SLP209 T01170017

EXPIRED METARs :
  • 081853Z AUTO 17009G18KT 120V200 10SM SCT055 12/02 A3014 RMK AO2 PK WND 19026/1817 SLP208 T01170022
  • 081753Z AUTO 16012G24KT 10SM SCT049 11/02 A3019 RMK AO2 SLP227 T01060022 10111 20022 58019

TAF KCSV
Valid from the 08 at 18:00 until the 09 at 18:00 UTC


081720Z 0818/0918 18010G17KT P6SM BKN100
FM090300 17010G20KT P6SM VCSH OVC050
FM091200 17010G17KT P6SM VCSH OVC025



MET'MAP, your aeronautical weather chart ! - Copyright ORBIFLY December 2007 - Disclaimer

ORBIFLY MET'MAP TEAM :

Programming & Development : Alexandra Zaïnal
Concept & original design : Baudouin d'Aumeries
Assistance for programming : Marc-Olivier Méhu
Technical & hardware support : Manuel Goepfert

Contact : metmap@orbifly.com




SOURCES & CREDITS :

   NOAA       Earth
Advisory